Weather at Florence Regional Airport

Public forecast

Using degrees Fahrenheit for public forecast. Weather courtesy of forecast.io.

Current aviation weather report (METAR) for Florence Regional Airport

Retrieved 2020/11/30 13:11 UTC (0 seconds ago):

KFLO 301311Z 20015G20KT 10SM FEW018 SCT028 BKN095 21/18 A2957 RMK AO2 T02060178

Aviation forecast (TAF) for Florence Regional Airport

Retrieved 2020/11/30 12:22 UTC (41 minutes ago):

TAF KFLO 301120Z 3012/0112 20016G25KT 6SM -SHRA BR BKN025 FM301300 20017G26KT P6SM VCSH BKN020 WS020/20050KT FM301400 22018G29KT P6SM VCSH BKN020 FM301600 23018G32KT P6SM SCT030